createdAt,value
2022-10-09T00:01:00.497Z,7.04
2022-10-09T00:03:26.830Z,7.20
2022-10-09T00:05:53.430Z,7.19
2022-10-09T00:08:20.076Z,7.27
2022-10-09T00:10:46.416Z,7.19
2022-10-09T00:13:12.759Z,7.13
2022-10-09T00:15:39.545Z,7.15
2022-10-09T00:18:06.455Z,7.11
2022-10-09T00:20:35.665Z,7.17
2022-10-09T00:23:02.005Z,7.16
2022-10-09T00:25:28.333Z,7.13
2022-10-09T00:27:56.555Z,7.24
2022-10-09T00:30:22.871Z,7.20
2022-10-09T00:32:49.516Z,7.20
2022-10-09T00:35:16.016Z,7.15
2022-10-09T00:37:42.401Z,7.19
2022-10-09T00:40:08.828Z,7.21
2022-10-09T00:42:35.184Z,7.25
2022-10-09T00:45:03.833Z,7.20
2022-10-09T00:47:37.149Z,7.24
2022-10-09T00:50:05.470Z,7.29
2022-10-09T00:52:31.875Z,7.06
2022-10-09T00:54:58.218Z,6.99
2022-10-09T00:57:24.654Z,6.93
2022-10-09T00:59:51.004Z,6.92
2022-10-09T01:02:17.661Z,6.94
2022-10-09T01:04:44.061Z,6.88
2022-10-09T01:07:19.730Z,6.80
2022-10-09T01:10:04.833Z,6.71
2022-10-09T01:12:40.618Z,6.57
2022-10-09T01:15:25.699Z,6.68
2022-10-09T01:17:52.032Z,6.62
2022-10-09T01:20:39.025Z,6.67
2022-10-09T01:23:24.201Z,6.68
2022-10-09T01:25:56.539Z,6.68
2022-10-09T01:28:23.316Z,6.65
2022-10-09T01:30:49.769Z,6.67
2022-10-09T01:33:16.179Z,6.59
2022-10-09T01:35:42.503Z,6.65
2022-10-09T01:38:09.740Z,6.63
2022-10-09T01:40:36.085Z,6.77
2022-10-09T01:43:02.461Z,6.75
2022-10-09T01:45:42.111Z,6.76
2022-10-09T01:48:09.393Z,6.73
2022-10-09T01:50:35.742Z,6.75
2022-10-09T01:53:04.132Z,6.71
2022-10-09T01:55:30.670Z,6.81
2022-10-09T01:58:06.216Z,6.81
2022-10-09T02:00:33.599Z,6.75
2022-10-09T02:03:00.061Z,6.63
2022-10-09T02:05:26.717Z,6.70
2022-10-09T02:07:53.330Z,6.56
2022-10-09T02:10:19.876Z,6.34
2022-10-09T02:12:47.301Z,6.34
2022-10-09T02:15:13.866Z,6.33
2022-10-09T02:17:42.352Z,6.39
2022-10-09T02:20:28.979Z,6.56
2022-10-09T02:22:55.319Z,6.69
2022-10-09T02:25:21.705Z,6.63
2022-10-09T02:27:48.106Z,6.56
2022-10-09T02:30:14.536Z,6.41
2022-10-09T02:32:40.888Z,6.38
2022-10-09T02:35:07.405Z,6.28
2022-10-09T02:37:33.899Z,6.08
2022-10-09T02:40:00.276Z,6.11
2022-10-09T02:42:26.633Z,6.11
2022-10-09T02:44:53.004Z,5.99
2022-10-09T02:47:19.534Z,6.01
2022-10-09T02:49:45.883Z,6.14
2022-10-09T02:52:12.214Z,6.17
2022-10-09T02:54:39.007Z,6.25
2022-10-09T02:57:05.363Z,6.11
2022-10-09T02:59:32.128Z,6.01
2022-10-09T03:01:58.625Z,6.12
2022-10-09T03:04:25.067Z,6.09
2022-10-09T03:06:51.422Z,6.08
2022-10-09T03:09:17.733Z,6.05
2022-10-09T03:11:44.130Z,6.09
2022-10-09T03:14:10.574Z,6.00
2022-10-09T03:16:36.924Z,6.11
2022-10-09T03:19:03.419Z,6.10
2022-10-09T03:21:29.761Z,6.21
2022-10-09T03:23:56.171Z,6.17
2022-10-09T03:26:23.291Z,6.16
2022-10-09T03:28:49.968Z,6.19
2022-10-09T03:31:39.353Z,6.05
2022-10-09T03:34:03.124Z,6.09
2022-10-09T03:36:29.457Z,6.10
2022-10-09T03:38:55.826Z,6.02
2022-10-09T03:41:22.143Z,6.05
2022-10-09T03:43:48.523Z,5.93
2022-10-09T03:46:14.906Z,5.88
2022-10-09T03:48:41.280Z,5.98
2022-10-09T03:51:07.664Z,5.87
2022-10-09T03:53:35.452Z,5.87
2022-10-09T03:56:01.790Z,6.00
2022-10-09T03:58:28.195Z,6.19
2022-10-09T04:00:54.638Z,6.30
2022-10-09T04:03:21.070Z,6.23
2022-10-09T04:05:47.438Z,6.21
2022-10-09T04:08:13.796Z,6.20
2022-10-09T04:10:40.122Z,6.27
2022-10-09T04:13:06.500Z,6.31
2022-10-09T04:15:32.920Z,6.18
2022-10-09T04:17:59.336Z,5.95
2022-10-09T04:20:25.669Z,5.87
2022-10-09T04:22:52.134Z,5.78
2022-10-09T04:25:18.540Z,5.62
2022-10-09T04:27:44.894Z,5.54
2022-10-09T04:30:11.370Z,5.39
2022-10-09T04:32:37.746Z,5.34
2022-10-09T04:35:04.201Z,5.37
2022-10-09T04:37:30.577Z,5.29
2022-10-09T04:39:56.919Z,5.17
2022-10-09T04:42:23.261Z,5.22
2022-10-09T04:44:49.586Z,5.14
2022-10-09T04:47:15.990Z,5.11
2022-10-09T04:49:42.373Z,5.02
2022-10-09T04:52:08.720Z,5.01
2022-10-09T04:54:35.039Z,5.00
2022-10-09T04:57:01.383Z,4.95
2022-10-09T04:59:27.704Z,4.86
2022-10-09T05:01:54.124Z,4.89
2022-10-09T05:04:20.502Z,4.91
2022-10-09T05:06:46.950Z,4.85
2022-10-09T05:09:13.280Z,4.69
2022-10-09T05:11:42.666Z,4.67
2022-10-09T05:14:09.318Z,4.60
2022-10-09T05:16:49.678Z,4.64
2022-10-09T05:19:22.010Z,4.59
2022-10-09T05:21:48.390Z,4.69
2022-10-09T05:24:14.784Z,4.56
2022-10-09T05:26:41.204Z,4.67
2022-10-09T05:29:07.542Z,4.52
2022-10-09T05:31:33.996Z,4.55
2022-10-09T05:34:00.414Z,4.66
2022-10-09T05:36:26.823Z,4.57
2022-10-09T05:38:53.146Z,4.69
2022-10-09T05:41:20.038Z,4.88
2022-10-09T05:43:46.940Z,4.92
2022-10-09T05:46:17.402Z,4.79
2022-10-09T05:48:44.301Z,4.64
2022-10-09T05:51:17.441Z,4.76
2022-10-09T05:53:44.086Z,4.97
2022-10-09T05:56:13.153Z,5.13
2022-10-09T05:58:39.498Z,5.15
2022-10-09T06:01:05.935Z,5.19
2022-10-09T06:03:32.389Z,5.27
2022-10-09T06:06:05.405Z,5.16
2022-10-09T06:08:35.442Z,5.21
2022-10-09T06:11:08.669Z,5.37
2022-10-09T06:13:35.027Z,5.40
2022-10-09T06:16:01.732Z,5.35
2022-10-09T06:18:28.105Z,5.42
2022-10-09T06:21:03.746Z,5.41
2022-10-09T06:23:30.199Z,5.55
2022-10-09T06:25:57.422Z,5.52
2022-10-09T06:28:23.862Z,5.56
2022-10-09T06:30:50.321Z,5.56
2022-10-09T06:33:16.821Z,5.62
2022-10-09T06:35:43.160Z,5.72
2022-10-09T06:38:09.633Z,5.75
2022-10-09T06:40:36.536Z,5.84
2022-10-09T06:43:03.470Z,5.83
2022-10-09T06:45:29.849Z,5.91
2022-10-09T06:47:56.256Z,5.93
2022-10-09T06:50:23.764Z,5.96
2022-10-09T06:52:50.502Z,6.06
2022-10-09T06:55:17.179Z,6.08
2022-10-09T06:57:43.585Z,6.21
2022-10-09T07:00:10.166Z,6.33
2022-10-09T07:02:41.775Z,6.26
2022-10-09T07:05:10.173Z,6.30
2022-10-09T07:07:39.171Z,6.38
2022-10-09T07:10:05.706Z,6.48
2022-10-09T07:12:33.910Z,6.65
2022-10-09T07:15:00.230Z,7.03
2022-10-09T07:17:26.737Z,7.34
2022-10-09T07:19:53.050Z,7.60
2022-10-09T07:22:22.513Z,7.95
2022-10-09T07:24:51.351Z,8.37
2022-10-09T07:27:17.708Z,8.65
2022-10-09T07:29:44.025Z,8.75
2022-10-09T07:32:10.741Z,8.91
2022-10-09T07:34:37.145Z,9.12
2022-10-09T07:37:03.519Z,9.17
2022-10-09T07:39:30.212Z,9.28
2022-10-09T07:41:56.571Z,9.35
2022-10-09T07:44:22.941Z,9.40
2022-10-09T07:46:49.826Z,9.37
2022-10-09T07:49:16.234Z,9.32
2022-10-09T07:51:42.672Z,9.22
2022-10-09T07:54:09.029Z,9.18
2022-10-09T07:56:35.741Z,9.07
2022-10-09T07:59:03.208Z,8.94
2022-10-09T08:01:29.759Z,8.98
2022-10-09T08:03:56.430Z,9.16
2022-10-09T08:06:22.792Z,9.05
2022-10-09T08:08:49.561Z,8.96
2022-10-09T08:11:16.120Z,8.90
2022-10-09T08:13:42.560Z,9.10
2022-10-09T08:16:09.086Z,9.33
2022-10-09T08:18:35.672Z,9.64
2022-10-09T08:21:06.257Z,9.87
2022-10-09T08:23:32.656Z,10.01
2022-10-09T08:25:58.974Z,10.32
2022-10-09T08:28:25.373Z,10.39
2022-10-09T08:30:51.812Z,10.56
2022-10-09T08:33:21.910Z,10.65
2022-10-09T08:35:49.308Z,10.64
2022-10-09T08:38:37.454Z,10.71
2022-10-09T08:41:05.354Z,10.96
2022-10-09T08:43:35.804Z,11.00
2022-10-09T08:46:04.895Z,10.91
2022-10-09T08:48:32.104Z,11.02
2022-10-09T08:50:58.587Z,11.04
2022-10-09T08:53:37.089Z,11.17
2022-10-09T08:56:03.663Z,11.17
2022-10-09T08:58:30.964Z,11.21
2022-10-09T09:01:01.567Z,11.19
2022-10-09T09:03:33.997Z,11.25
2022-10-09T09:06:00.293Z,11.35
2022-10-09T09:08:33.308Z,11.37
2022-10-09T09:11:21.604Z,11.41
2022-10-09T09:14:14.561Z,11.60
2022-10-09T09:16:47.464Z,11.65
2022-10-09T09:19:34.030Z,11.65
2022-10-09T09:22:00.383Z,11.59
2022-10-09T09:24:59.285Z,11.61
2022-10-09T09:27:32.315Z,11.81
2022-10-09T09:30:17.459Z,11.76
2022-10-09T09:32:45.562Z,11.88
2022-10-09T09:35:14.887Z,11.90
2022-10-09T09:37:41.259Z,11.95
2022-10-09T09:40:45.903Z,11.87
2022-10-09T09:43:04.074Z,11.97
2022-10-09T09:45:31.218Z,11.98
2022-10-09T09:48:01.977Z,11.97
2022-10-09T09:50:50.585Z,12.04
2022-10-09T09:53:30.403Z,12.15
2022-10-09T09:55:56.801Z,12.13
2022-10-09T09:58:23.163Z,12.23
2022-10-09T10:01:01.299Z,12.29
2022-10-09T10:03:27.691Z,12.29
2022-10-09T10:05:54.029Z,12.47
2022-10-09T10:08:29.734Z,12.69
2022-10-09T10:10:57.479Z,12.79
2022-10-09T10:13:27.895Z,12.98
2022-10-09T10:15:54.972Z,12.94
2022-10-09T10:18:21.926Z,13.05
2022-10-09T10:20:49.459Z,12.84
2022-10-09T10:23:20.556Z,13.02
2022-10-09T10:25:46.939Z,13.12
2022-10-09T10:28:15.311Z,12.93
2022-10-09T10:30:41.684Z,12.94
2022-10-09T10:33:13.047Z,13.37
2022-10-09T10:35:39.865Z,13.47
2022-10-09T10:38:19.871Z,13.66
2022-10-09T10:40:47.441Z,14.07
2022-10-09T10:43:14.958Z,13.86
2022-10-09T10:45:44.311Z,13.75
2022-10-09T10:48:15.208Z,13.92
2022-10-09T10:50:46.797Z,13.90
2022-10-09T10:53:16.201Z,13.85
2022-10-09T10:55:49.006Z,14.08
2022-10-09T10:58:15.378Z,13.50
2022-10-09T11:00:43.288Z,13.96
2022-10-09T11:03:15.708Z,14.34
2022-10-09T11:05:44.382Z,14.48
2022-10-09T11:08:29.493Z,14.31
2022-10-09T11:10:55.787Z,14.88
2022-10-09T11:13:37.061Z,14.89
2022-10-09T11:16:03.429Z,15.20
2022-10-09T11:18:45.123Z,15.37
2022-10-09T11:21:31.099Z,15.27
2022-10-09T11:24:16.245Z,15.65
2022-10-09T11:26:48.888Z,15.24
2022-10-09T11:29:20.243Z,15.50
2022-10-09T11:31:53.772Z,15.55
2022-10-09T11:34:21.659Z,15.66
2022-10-09T11:36:48.012Z,15.98
2022-10-09T11:39:15.338Z,15.58
2022-10-09T11:41:42.336Z,15.85
2022-10-09T11:44:27.622Z,15.93
2022-10-09T11:47:05.559Z,15.43
2022-10-09T11:49:52.721Z,15.19
2022-10-09T11:52:21.057Z,15.41
2022-10-09T11:54:47.440Z,15.63
2022-10-09T11:57:15.453Z,16.08
2022-10-09T11:59:42.545Z,16.22
2022-10-09T12:02:21.254Z,16.06
2022-10-09T12:04:56.186Z,16.09
2022-10-09T12:07:35.748Z,15.92
2022-10-09T12:10:09.308Z,15.67
2022-10-09T12:12:37.674Z,15.78
2022-10-09T12:15:33.441Z,15.51
2022-10-09T12:17:59.788Z,16.02
2022-10-09T12:20:26.169Z,16.25
2022-10-09T12:23:21.343Z,16.25
2022-10-09T12:25:42.837Z,16.07
2022-10-09T12:28:30.027Z,16.15
2022-10-09T12:30:57.167Z,16.31
2022-10-09T12:33:29.610Z,16.38
2022-10-09T12:36:00.327Z,16.32
2022-10-09T12:38:27.531Z,16.56
2022-10-09T12:40:54.287Z,16.48
2022-10-09T12:43:21.513Z,16.68
2022-10-09T12:45:48.049Z,16.70
2022-10-09T12:48:14.405Z,16.55
2022-10-09T12:50:42.517Z,16.29
2022-10-09T12:53:19.594Z,16.50
2022-10-09T12:55:46.844Z,16.89
2022-10-09T12:58:18.012Z,17.10
2022-10-09T13:00:44.525Z,16.95
2022-10-09T13:03:29.512Z,17.34
2022-10-09T13:05:56.167Z,17.32
2022-10-09T13:08:36.264Z,17.01
2022-10-09T13:11:19.242Z,17.18
2022-10-09T13:13:49.047Z,17.19
2022-10-09T13:16:15.470Z,16.96
2022-10-09T13:18:41.877Z,16.85
2022-10-09T13:21:22.906Z,17.02
2022-10-09T13:23:49.255Z,17.02
2022-10-09T13:26:29.482Z,16.21
2022-10-09T13:28:56.269Z,16.64
2022-10-09T13:31:22.828Z,16.86
2022-10-09T13:33:49.232Z,16.61
2022-10-09T13:36:16.141Z,16.71
2022-10-09T13:38:42.597Z,16.82
2022-10-09T13:41:19.474Z,16.51
2022-10-09T13:43:45.913Z,16.67
2022-10-09T13:46:12.295Z,16.70
2022-10-09T13:48:39.522Z,16.21
2022-10-09T13:51:05.989Z,16.51
2022-10-09T13:53:32.572Z,16.51
2022-10-09T13:56:00.978Z,16.45
2022-10-09T13:58:27.937Z,16.65
2022-10-09T14:00:54.293Z,16.60
2022-10-09T14:03:20.951Z,16.69
2022-10-09T14:05:47.355Z,16.78
2022-10-09T14:08:13.822Z,16.81
2022-10-09T14:10:41.960Z,16.62
2022-10-09T14:13:08.936Z,16.83
2022-10-09T14:15:38.216Z,16.70
2022-10-09T14:18:05.304Z,16.28
2022-10-09T14:20:31.728Z,15.87
2022-10-09T14:22:58.093Z,15.10
2022-10-09T14:25:24.738Z,14.88
2022-10-09T14:27:51.172Z,14.46
2022-10-09T14:30:17.745Z,14.26
2022-10-09T14:32:44.100Z,13.90
2022-10-09T14:35:10.557Z,14.06
2022-10-09T14:37:41.524Z,13.86
2022-10-09T14:40:08.966Z,13.60
2022-10-09T14:42:36.406Z,13.46
2022-10-09T14:45:02.790Z,13.44
2022-10-09T14:47:29.178Z,13.34
2022-10-09T14:49:55.515Z,13.39
2022-10-09T14:52:21.870Z,13.39
2022-10-09T14:54:49.571Z,13.30
2022-10-09T14:57:15.988Z,13.36
2022-10-09T14:59:42.348Z,13.31
2022-10-09T15:02:13.872Z,13.25
2022-10-09T15:04:40.922Z,13.26
2022-10-09T15:07:13.412Z,13.13
2022-10-09T15:09:40.235Z,13.22
2022-10-09T15:12:11.904Z,13.20
2022-10-09T15:14:39.141Z,13.10
2022-10-09T15:17:32.291Z,13.14
2022-10-09T15:20:02.481Z,13.07
2022-10-09T15:22:32.770Z,13.07
2022-10-09T15:25:00.031Z,13.10
2022-10-09T15:27:27.141Z,12.94
2022-10-09T15:30:03.719Z,13.00
2022-10-09T15:35:40.822Z,12.86
2022-10-09T15:38:12.422Z,12.80
2022-10-09T15:40:45.870Z,12.66
2022-10-09T15:43:37.608Z,12.68
2022-10-09T15:46:07.080Z,12.63
2022-10-09T15:48:33.586Z,12.46
2022-10-09T15:51:03.239Z,12.42
2022-10-09T15:53:29.710Z,12.35
2022-10-09T15:55:57.133Z,12.42
2022-10-09T15:58:23.684Z,12.34
2022-10-09T16:00:50.225Z,12.29
2022-10-09T16:03:17.133Z,12.24
2022-10-09T16:05:44.437Z,12.20
2022-10-09T16:08:13.832Z,12.06
2022-10-09T16:10:47.868Z,11.96
2022-10-09T16:13:15.383Z,11.89
2022-10-09T16:15:42.207Z,11.87
2022-10-09T16:18:08.832Z,11.89
2022-10-09T16:20:35.662Z,11.78
2022-10-09T16:23:02.057Z,11.71
2022-10-09T16:25:33.207Z,11.69
2022-10-09T16:28:00.159Z,11.56
2022-10-09T16:30:36.622Z,11.31
2022-10-09T16:33:12.847Z,11.09
2022-10-09T16:36:23.195Z,11.07
2022-10-09T16:38:49.696Z,11.02
2022-10-09T16:41:17.954Z,11.18
2022-10-09T16:43:45.120Z,11.13
2022-10-09T16:46:15.210Z,11.01
2022-10-09T16:48:41.649Z,11.17
2022-10-09T16:51:09.208Z,11.17
2022-10-09T16:53:35.651Z,11.17
2022-10-09T16:56:14.711Z,11.23
2022-10-09T16:58:41.375Z,11.12
2022-10-09T17:01:10.172Z,11.00
2022-10-09T17:03:37.059Z,10.88
2022-10-09T17:06:06.800Z,10.70
2022-10-09T17:08:33.331Z,10.62
2022-10-09T17:10:59.688Z,10.58
2022-10-09T17:13:26.106Z,10.57
2022-10-09T17:15:52.468Z,10.47
2022-10-09T17:18:18.954Z,10.48
2022-10-09T17:20:45.373Z,10.61
2022-10-09T17:23:11.864Z,10.62
2022-10-09T17:25:38.935Z,10.58
2022-10-09T17:28:07.995Z,10.55
2022-10-09T17:30:37.897Z,10.51
2022-10-09T17:33:04.360Z,10.50
2022-10-09T17:35:30.865Z,10.58
2022-10-09T17:37:57.778Z,10.62
2022-10-09T17:40:24.301Z,10.76
2022-10-09T17:42:51.048Z,10.84
2022-10-09T17:45:17.596Z,10.83
2022-10-09T17:47:44.217Z,10.81
2022-10-09T17:50:10.637Z,10.81
2022-10-09T17:52:37.163Z,10.79
2022-10-09T17:55:03.649Z,10.77
2022-10-09T17:57:30.117Z,10.70
2022-10-09T17:59:56.492Z,10.69
2022-10-09T18:02:22.885Z,10.63
2022-10-09T18:04:49.309Z,10.63
2022-10-09T18:07:19.429Z,10.85
2022-10-09T18:09:45.834Z,10.95
2022-10-09T18:12:12.298Z,10.85
2022-10-09T18:14:38.629Z,10.82
2022-10-09T18:17:05.091Z,10.73
2022-10-09T18:19:31.654Z,10.75
2022-10-09T18:21:58.058Z,10.74
2022-10-09T18:24:24.488Z,10.74
2022-10-09T18:26:51.016Z,10.96
2022-10-09T18:29:17.402Z,10.94
2022-10-09T18:31:43.831Z,10.79
2022-10-09T18:34:10.262Z,10.85
2022-10-09T18:36:36.809Z,10.65
2022-10-09T18:39:07.079Z,10.56
2022-10-09T18:41:33.548Z,10.59
2022-10-09T18:44:00.266Z,10.49
2022-10-09T18:46:26.881Z,10.49
2022-10-09T18:48:53.884Z,10.51
2022-10-09T18:51:20.603Z,10.53
2022-10-09T18:53:47.716Z,10.62
2022-10-09T18:56:14.383Z,10.56
2022-10-09T18:58:40.830Z,10.55
2022-10-09T19:01:07.799Z,10.62
2022-10-09T19:03:34.491Z,10.69
2022-10-09T19:06:00.899Z,10.59
2022-10-09T19:08:27.498Z,10.63
2022-10-09T19:10:53.897Z,10.58
2022-10-09T19:13:20.762Z,10.52
2022-10-09T19:15:51.438Z,10.54
2022-10-09T19:18:17.816Z,10.62
2022-10-09T19:20:44.168Z,10.58
2022-10-09T19:23:10.728Z,10.60
2022-10-09T19:25:37.117Z,10.51
2022-10-09T19:28:03.502Z,10.46
2022-10-09T19:30:29.955Z,10.46
2022-10-09T19:32:56.501Z,10.47
2022-10-09T19:35:22.891Z,10.41
2022-10-09T19:37:49.597Z,10.52
2022-10-09T19:40:16.124Z,10.52
2022-10-09T19:42:42.685Z,10.60
2022-10-09T19:45:09.253Z,10.57
2022-10-09T19:47:35.655Z,10.57
2022-10-09T19:50:02.104Z,10.56
2022-10-09T19:52:28.611Z,10.54
2022-10-09T19:54:54.967Z,10.60
2022-10-09T19:57:21.339Z,10.68
2022-10-09T19:59:47.960Z,10.61
2022-10-09T20:02:14.432Z,10.48
2022-10-09T20:04:40.812Z,10.41
2022-10-09T20:07:12.396Z,10.36
2022-10-09T20:09:39.083Z,10.68
2022-10-09T20:12:06.999Z,10.75
2022-10-09T20:14:33.485Z,10.86
2022-10-09T20:16:59.885Z,10.75
2022-10-09T20:19:30.724Z,10.64
2022-10-09T20:21:57.375Z,10.59
2022-10-09T20:24:23.752Z,10.51
2022-10-09T20:26:50.152Z,10.45
2022-10-09T20:29:16.784Z,10.25
2022-10-09T20:31:43.192Z,10.28
2022-10-09T20:34:09.543Z,10.26
2022-10-09T20:36:37.035Z,10.21
2022-10-09T20:39:04.381Z,10.06
2022-10-09T20:41:30.835Z,10.08
2022-10-09T20:43:57.815Z,10.05
2022-10-09T20:46:24.276Z,10.03
2022-10-09T20:48:50.932Z,10.00
2022-10-09T20:51:17.415Z,9.90
2022-10-09T20:53:43.792Z,9.82
2022-10-09T20:56:11.272Z,9.82
2022-10-09T20:58:37.772Z,9.77
2022-10-09T21:01:05.379Z,9.83
2022-10-09T21:03:32.050Z,9.71
2022-10-09T21:05:58.484Z,9.61
2022-10-09T21:08:25.070Z,9.61
2022-10-09T21:10:51.486Z,9.66
2022-10-09T21:13:17.874Z,9.65
2022-10-09T21:15:44.773Z,9.70
2022-10-09T21:18:11.305Z,9.62
2022-10-09T21:20:40.962Z,9.61
2022-10-09T21:23:07.626Z,9.53
2022-10-09T21:25:34.205Z,9.49
2022-10-09T21:28:00.693Z,9.55
2022-10-09T21:30:27.480Z,9.61
2022-10-09T21:32:54.082Z,9.65
2022-10-09T21:35:20.598Z,9.64
2022-10-09T21:37:47.028Z,9.64
2022-10-09T21:40:14.505Z,9.60
2022-10-09T21:42:40.978Z,9.56
2022-10-09T21:45:07.668Z,9.60
2022-10-09T21:47:34.114Z,9.55
2022-10-09T21:50:00.477Z,9.46
2022-10-09T21:52:26.891Z,9.44
2022-10-09T21:54:53.211Z,9.50
2022-10-09T21:57:19.620Z,9.39
2022-10-09T21:59:47.084Z,9.36
2022-10-09T22:02:13.462Z,9.30
2022-10-09T22:04:39.882Z,9.21
2022-10-09T22:07:06.297Z,9.26
2022-10-09T22:09:32.710Z,9.25
2022-10-09T22:12:00.351Z,9.38
2022-10-09T22:14:26.805Z,9.39
2022-10-09T22:16:53.172Z,9.35
2022-10-09T22:19:19.710Z,9.33
2022-10-09T22:21:46.142Z,9.19
2022-10-09T22:24:12.564Z,9.09
2022-10-09T22:26:39.030Z,8.94
2022-10-09T22:29:05.484Z,8.98
2022-10-09T22:31:31.868Z,9.02
2022-10-09T22:33:59.189Z,8.98
2022-10-09T22:36:26.340Z,8.98
2022-10-09T22:38:53.196Z,8.92
2022-10-09T22:41:20.000Z,8.86
2022-10-09T22:43:48.521Z,8.96
2022-10-09T22:46:18.663Z,8.97
2022-10-09T22:48:45.109Z,8.95
2022-10-09T22:51:12.365Z,8.89
2022-10-09T22:53:39.037Z,8.85
2022-10-09T22:56:06.188Z,8.86
2022-10-09T22:58:32.545Z,8.83
2022-10-09T23:01:01.836Z,8.76
2022-10-09T23:03:28.272Z,8.74
2022-10-09T23:05:55.025Z,8.73
2022-10-09T23:08:21.396Z,8.77
2022-10-09T23:10:47.776Z,8.88
2022-10-09T23:13:14.169Z,8.99
2022-10-09T23:15:40.533Z,9.07
2022-10-09T23:18:06.978Z,9.01
2022-10-09T23:20:35.398Z,9.05
2022-10-09T23:23:01.826Z,9.04
2022-10-09T23:25:28.196Z,9.02
2022-10-09T23:27:54.605Z,9.00
2022-10-09T23:30:21.007Z,9.08
2022-10-09T23:32:47.512Z,9.11
2022-10-09T23:35:14.004Z,9.07
2022-10-09T23:37:40.374Z,8.96
2022-10-09T23:40:07.026Z,8.96
2022-10-09T23:42:33.403Z,8.94
2022-10-09T23:44:59.765Z,8.88
2022-10-09T23:47:26.142Z,8.84
2022-10-09T23:49:52.519Z,8.90
2022-10-09T23:52:18.928Z,8.88
2022-10-09T23:54:45.339Z,8.77
2022-10-09T23:57:11.706Z,8.70
2022-10-09T23:59:39.398Z,8.62
